sensor_id;sensor_type;location;lat;lon;timestamp;temperature;humidity
12384;DHT22;6256;63.808;20.336;2023-05-20T00:01:07;5.80;99.90
12384;DHT22;6256;63.808;20.336;2023-05-20T00:03:33;5.80;99.90
12384;DHT22;6256;63.808;20.336;2023-05-20T00:05:59;5.70;99.90
12384;DHT22;6256;63.808;20.336;2023-05-20T00:08:24;5.70;99.90
12384;DHT22;6256;63.808;20.336;2023-05-20T00:10:50;5.70;99.90
12384;DHT22;6256;63.808;20.336;2023-05-20T00:13:16;5.60;99.90
12384;DHT22;6256;63.808;20.336;2023-05-20T00:15:42;5.60;99.90
12384;DHT22;6256;63.808;20.336;2023-05-20T00:18:07;5.60;99.90
12384;DHT22;6256;63.808;20.336;2023-05-20T00:20:33;5.50;99.90
12384;DHT22;6256;63.808;20.336;2023-05-20T00:22:59;5.50;99.90
12384;DHT22;6256;63.808;20.336;2023-05-20T00:25:24;5.40;99.90
12384;DHT22;6256;63.808;20.336;2023-05-20T00:27:50;5.40;99.90
12384;DHT22;6256;63.808;20.336;2023-05-20T00:30:16;5.30;99.90
12384;DHT22;6256;63.808;20.336;2023-05-20T00:32:42;5.30;99.90
12384;DHT22;6256;63.808;20.336;2023-05-20T00:35:07;5.30;99.90
12384;DHT22;6256;63.808;20.336;2023-05-20T00:37:35;5.30;99.90
12384;DHT22;6256;63.808;20.336;2023-05-20T00:40:00;5.20;99.90
12384;DHT22;6256;63.808;20.336;2023-05-20T00:42:27;5.20;99.90
12384;DHT22;6256;63.808;20.336;2023-05-20T00:44:56;5.20;99.90
12384;DHT22;6256;63.808;20.336;2023-05-20T00:47:28;5.10;99.90
12384;DHT22;6256;63.808;20.336;2023-05-20T00:49:55;5.10;99.90
12384;DHT22;6256;63.808;20.336;2023-05-20T00:52:21;5.10;99.90
12384;DHT22;6256;63.808;20.336;2023-05-20T00:54:48;5.00;99.90
12384;DHT22;6256;63.808;20.336;2023-05-20T00:57:14;5.00;99.90
12384;DHT22;6256;63.808;20.336;2023-05-20T00:59:41;5.00;99.90
12384;DHT22;6256;63.808;20.336;2023-05-20T01:02:06;4.90;99.90
12384;DHT22;6256;63.808;20.336;2023-05-20T01:04:32;4.90;99.90
12384;DHT22;6256;63.808;20.336;2023-05-20T01:07:00;4.90;99.90
12384;DHT22;6256;63.808;20.336;2023-05-20T01:09:27;4.80;99.90
12384;DHT22;6256;63.808;20.336;2023-05-20T01:12:04;4.80;99.90
12384;DHT22;6256;63.808;20.336;2023-05-20T01:14:35;4.80;99.90
12384;DHT22;6256;63.808;20.336;2023-05-20T01:17:02;4.80;99.90
12384;DHT22;6256;63.808;20.336;2023-05-20T01:19:41;4.70;99.90
12384;DHT22;6256;63.808;20.336;2023-05-20T01:22:14;4.70;99.90
12384;DHT22;6256;63.808;20.336;2023-05-20T01:24:41;4.70;99.90
12384;DHT22;6256;63.808;20.336;2023-05-20T01:27:09;4.70;99.90
12384;DHT22;6256;63.808;20.336;2023-05-20T01:29:36;4.60;99.90
12384;DHT22;6256;63.808;20.336;2023-05-20T01:32:38;4.60;99.90
12384;DHT22;6256;63.808;20.336;2023-05-20T01:34:57;4.60;99.90
12384;DHT22;6256;63.808;20.336;2023-05-20T01:37:24;4.60;99.90
12384;DHT22;6256;63.808;20.336;2023-05-20T01:39:55;4.60;99.90
12384;DHT22;6256;63.808;20.336;2023-05-20T01:42:25;4.50;99.90
12384;DHT22;6256;63.808;20.336;2023-05-20T01:44:51;4.50;99.90
12384;DHT22;6256;63.808;20.336;2023-05-20T01:47:20;4.50;99.90
12384;DHT22;6256;63.808;20.336;2023-05-20T01:49:46;4.50;99.90
12384;DHT22;6256;63.808;20.336;2023-05-20T01:52:12;4.50;99.90
12384;DHT22;6256;63.808;20.336;2023-05-20T01:54:38;4.50;99.90
12384;DHT22;6256;63.808;20.336;2023-05-20T01:57:04;4.50;99.90
12384;DHT22;6256;63.808;20.336;2023-05-20T01:59:29;4.50;99.90
12384;DHT22;6256;63.808;20.336;2023-05-20T02:01:55;4.50;99.90
12384;DHT22;6256;63.808;20.336;2023-05-20T02:04:21;4.50;99.90
12384;DHT22;6256;63.808;20.336;2023-05-20T02:06:47;4.60;99.90
12384;DHT22;6256;63.808;20.336;2023-05-20T02:09:13;4.50;99.90
12384;DHT22;6256;63.808;20.336;2023-05-20T02:11:39;4.50;99.90
12384;DHT22;6256;63.808;20.336;2023-05-20T02:14:05;4.60;99.90
12384;DHT22;6256;63.808;20.336;2023-05-20T02:16:30;4.60;99.90
12384;DHT22;6256;63.808;20.336;2023-05-20T02:18:56;4.60;99.90
12384;DHT22;6256;63.808;20.336;2023-05-20T02:21:23;4.60;99.90
12384;DHT22;6256;63.808;20.336;2023-05-20T02:23:50;4.60;99.90
12384;DHT22;6256;63.808;20.336;2023-05-20T02:26:16;4.60;99.90
12384;DHT22;6256;63.808;20.336;2023-05-20T02:28:42;4.60;99.90
12384;DHT22;6256;63.808;20.336;2023-05-20T02:31:14;4.60;99.90
12384;DHT22;6256;63.808;20.336;2023-05-20T02:33:40;4.70;99.90
12384;DHT22;6256;63.808;20.336;2023-05-20T02:36:07;4.60;99.90
12384;DHT22;6256;63.808;20.336;2023-05-20T02:38:33;4.70;99.90
12384;DHT22;6256;63.808;20.336;2023-05-20T02:40:59;4.70;99.90
12384;DHT22;6256;63.808;20.336;2023-05-20T02:43:25;4.70;99.90
12384;DHT22;6256;63.808;20.336;2023-05-20T02:45:50;4.80;99.90
12384;DHT22;6256;63.808;20.336;2023-05-20T02:48:16;5.00;99.90
12384;DHT22;6256;63.808;20.336;2023-05-20T02:50:42;5.00;99.90
12384;DHT22;6256;63.808;20.336;2023-05-20T02:53:08;5.20;99.90
12384;DHT22;6256;63.808;20.336;2023-05-20T02:55:34;5.20;99.90
12384;DHT22;6256;63.808;20.336;2023-05-20T02:58:00;5.40;99.90
12384;DHT22;6256;63.808;20.336;2023-05-20T03:00:26;5.50;99.90
12384;DHT22;6256;63.808;20.336;2023-05-20T03:02:55;5.60;99.90
12384;DHT22;6256;63.808;20.336;2023-05-20T03:05:20;5.70;99.90
12384;DHT22;6256;63.808;20.336;2023-05-20T03:07:47;5.80;99.90
12384;DHT22;6256;63.808;20.336;2023-05-20T03:10:13;5.80;99.90
12384;DHT22;6256;63.808;20.336;2023-05-20T03:12:39;5.90;99.90
12384;DHT22;6256;63.808;20.336;2023-05-20T03:15:05;6.00;99.90
12384;DHT22;6256;63.808;20.336;2023-05-20T03:17:31;6.10;99.90
12384;DHT22;6256;63.808;20.336;2023-05-20T03:19:57;6.20;99.90
12384;DHT22;6256;63.808;20.336;2023-05-20T03:22:23;6.20;99.90
12384;DHT22;6256;63.808;20.336;2023-05-20T03:24:48;6.30;99.90
12384;DHT22;6256;63.808;20.336;2023-05-20T03:27:14;6.40;99.90
12384;DHT22;6256;63.808;20.336;2023-05-20T03:29:40;6.50;99.90
12384;DHT22;6256;63.808;20.336;2023-05-20T03:32:06;6.60;99.90
12384;DHT22;6256;63.808;20.336;2023-05-20T03:34:31;6.60;99.90
12384;DHT22;6256;63.808;20.336;2023-05-20T03:36:57;6.80;99.90
12384;DHT22;6256;63.808;20.336;2023-05-20T03:39:24;6.90;99.90
12384;DHT22;6256;63.808;20.336;2023-05-20T03:41:50;7.00;99.90
12384;DHT22;6256;63.808;20.336;2023-05-20T03:44:16;7.00;99.90
12384;DHT22;6256;63.808;20.336;2023-05-20T03:46:42;7.10;99.90
12384;DHT22;6256;63.808;20.336;2023-05-20T03:49:07;7.10;99.90
12384;DHT22;6256;63.808;20.336;2023-05-20T03:51:33;7.20;99.90
12384;DHT22;6256;63.808;20.336;2023-05-20T03:53:58;7.20;99.90
12384;DHT22;6256;63.808;20.336;2023-05-20T03:56:25;7.20;99.90
12384;DHT22;6256;63.808;20.336;2023-05-20T03:58:51;7.30;99.90
12384;DHT22;6256;63.808;20.336;2023-05-20T04:01:16;7.40;99.90
12384;DHT22;6256;63.808;20.336;2023-05-20T04:03:42;7.40;99.90
12384;DHT22;6256;63.808;20.336;2023-05-20T04:06:08;7.50;99.90
12384;DHT22;6256;63.808;20.336;2023-05-20T04:08:34;7.60;99.90
12384;DHT22;6256;63.808;20.336;2023-05-20T04:11:04;7.60;99.90
12384;DHT22;6256;63.808;20.336;2023-05-20T04:13:30;7.70;99.90
12384;DHT22;6256;63.808;20.336;2023-05-20T04:15:56;7.80;99.90
12384;DHT22;6256;63.808;20.336;2023-05-20T04:18:21;7.80;99.90
12384;DHT22;6256;63.808;20.336;2023-05-20T04:20:47;7.90;99.90
12384;DHT22;6256;63.808;20.336;2023-05-20T04:23:13;8.00;99.90
12384;DHT22;6256;63.808;20.336;2023-05-20T04:25:38;8.10;99.90
12384;DHT22;6256;63.808;20.336;2023-05-20T04:28:06;8.10;99.90
12384;DHT22;6256;63.808;20.336;2023-05-20T04:30:33;8.20;99.90
12384;DHT22;6256;63.808;20.336;2023-05-20T04:33:00;8.20;99.90
12384;DHT22;6256;63.808;20.336;2023-05-20T04:35:27;8.30;99.90
12384;DHT22;6256;63.808;20.336;2023-05-20T04:37:54;8.30;99.90
12384;DHT22;6256;63.808;20.336;2023-05-20T04:40:20;8.30;99.90
12384;DHT22;6256;63.808;20.336;2023-05-20T04:42:45;8.40;99.90
12384;DHT22;6256;63.808;20.336;2023-05-20T04:45:11;8.50;99.90
12384;DHT22;6256;63.808;20.336;2023-05-20T04:47:38;8.60;99.90
12384;DHT22;6256;63.808;20.336;2023-05-20T04:50:09;8.60;99.90
12384;DHT22;6256;63.808;20.336;2023-05-20T04:52:41;8.70;99.90
12384;DHT22;6256;63.808;20.336;2023-05-20T04:55:08;8.90;99.90
12384;DHT22;6256;63.808;20.336;2023-05-20T04:57:35;9.00;99.90
12384;DHT22;6256;63.808;20.336;2023-05-20T05:00:03;9.10;99.90
12384;DHT22;6256;63.808;20.336;2023-05-20T05:02:32;9.30;99.90
12384;DHT22;6256;63.808;20.336;2023-05-20T05:04:58;9.40;99.90
12384;DHT22;6256;63.808;20.336;2023-05-20T05:07:23;9.50;99.90
12384;DHT22;6256;63.808;20.336;2023-05-20T05:09:49;9.50;99.90
12384;DHT22;6256;63.808;20.336;2023-05-20T05:12:15;9.40;99.90
12384;DHT22;6256;63.808;20.336;2023-05-20T05:14:40;9.40;99.90
12384;DHT22;6256;63.808;20.336;2023-05-20T05:17:06;9.40;99.90
12384;DHT22;6256;63.808;20.336;2023-05-20T05:19:32;9.40;99.90
12384;DHT22;6256;63.808;20.336;2023-05-20T05:21:57;9.50;99.90
12384;DHT22;6256;63.808;20.336;2023-05-20T05:24:23;9.60;99.90
12384;DHT22;6256;63.808;20.336;2023-05-20T05:26:53;9.70;99.90
12384;DHT22;6256;63.808;20.336;2023-05-20T05:29:19;9.70;99.90
12384;DHT22;6256;63.808;20.336;2023-05-20T05:31:44;9.80;99.90
12384;DHT22;6256;63.808;20.336;2023-05-20T05:34:10;9.70;99.90
12384;DHT22;6256;63.808;20.336;2023-05-20T05:36:38;9.90;99.90
12384;DHT22;6256;63.808;20.336;2023-05-20T05:39:04;10.20;99.90
12384;DHT22;6256;63.808;20.336;2023-05-20T05:41:30;10.30;99.90
12384;DHT22;6256;63.808;20.336;2023-05-20T05:43:57;10.40;99.90
12384;DHT22;6256;63.808;20.336;2023-05-20T05:46:23;10.50;99.90
12384;DHT22;6256;63.808;20.336;2023-05-20T05:48:49;10.50;99.90
12384;DHT22;6256;63.808;20.336;2023-05-20T05:51:15;10.70;99.90
12384;DHT22;6256;63.808;20.336;2023-05-20T05:53:41;10.80;99.90
12384;DHT22;6256;63.808;20.336;2023-05-20T05:56:08;11.00;99.90
12384;DHT22;6256;63.808;20.336;2023-05-20T05:58:34;11.30;99.90
12384;DHT22;6256;63.808;20.336;2023-05-20T06:00:59;11.40;99.90
12384;DHT22;6256;63.808;20.336;2023-05-20T06:03:25;11.30;99.90
12384;DHT22;6256;63.808;20.336;2023-05-20T06:05:51;11.00;99.90
12384;DHT22;6256;63.808;20.336;2023-05-20T06:08:17;11.00;99.90
12384;DHT22;6256;63.808;20.336;2023-05-20T06:10:49;11.00;99.90
12384;DHT22;6256;63.808;20.336;2023-05-20T06:13:15;11.20;99.90
12384;DHT22;6256;63.808;20.336;2023-05-20T06:15:41;11.50;99.90
12384;DHT22;6256;63.808;20.336;2023-05-20T06:18:07;11.50;99.90
12384;DHT22;6256;63.808;20.336;2023-05-20T06:20:32;11.60;99.90
12384;DHT22;6256;63.808;20.336;2023-05-20T06:22:58;11.50;99.90
12384;DHT22;6256;63.808;20.336;2023-05-20T06:25:24;11.60;99.90
12384;DHT22;6256;63.808;20.336;2023-05-20T06:27:50;11.60;99.90
12384;DHT22;6256;63.808;20.336;2023-05-20T06:30:16;11.70;99.90
12384;DHT22;6256;63.808;20.336;2023-05-20T06:32:42;11.80;99.90
12384;DHT22;6256;63.808;20.336;2023-05-20T06:35:08;11.90;99.90
12384;DHT22;6256;63.808;20.336;2023-05-20T06:37:34;12.00;99.90
12384;DHT22;6256;63.808;20.336;2023-05-20T06:39:59;12.20;99.90
12384;DHT22;6256;63.808;20.336;2023-05-20T06:42:25;12.20;99.90
12384;DHT22;6256;63.808;20.336;2023-05-20T06:44:51;12.30;99.90
12384;DHT22;6256;63.808;20.336;2023-05-20T06:47:17;12.20;99.90
12384;DHT22;6256;63.808;20.336;2023-05-20T06:49:43;12.30;99.90
12384;DHT22;6256;63.808;20.336;2023-05-20T06:52:09;12.30;99.90
12384;DHT22;6256;63.808;20.336;2023-05-20T06:54:37;12.30;99.90
12384;DHT22;6256;63.808;20.336;2023-05-20T06:57:06;12.40;99.90
12384;DHT22;6256;63.808;20.336;2023-05-20T06:59:32;12.50;99.90
12384;DHT22;6256;63.808;20.336;2023-05-20T07:01:57;12.40;99.90
12384;DHT22;6256;63.808;20.336;2023-05-20T07:04:23;12.50;99.90
12384;DHT22;6256;63.808;20.336;2023-05-20T07:06:49;12.60;99.90
12384;DHT22;6256;63.808;20.336;2023-05-20T07:09:14;12.70;99.90
12384;DHT22;6256;63.808;20.336;2023-05-20T07:11:40;12.60;99.90
12384;DHT22;6256;63.808;20.336;2023-05-20T07:14:06;12.70;99.90
12384;DHT22;6256;63.808;20.336;2023-05-20T07:16:33;12.80;99.90
12384;DHT22;6256;63.808;20.336;2023-05-20T07:18:59;12.80;99.90
12384;DHT22;6256;63.808;20.336;2023-05-20T07:21:25;12.90;99.90
12384;DHT22;6256;63.808;20.336;2023-05-20T07:23:51;13.00;99.90
12384;DHT22;6256;63.808;20.336;2023-05-20T07:26:17;13.10;99.90
12384;DHT22;6256;63.808;20.336;2023-05-20T07:28:43;13.20;99.90
12384;DHT22;6256;63.808;20.336;2023-05-20T07:31:10;13.30;99.90
12384;DHT22;6256;63.808;20.336;2023-05-20T07:33:35;13.30;99.90
12384;DHT22;6256;63.808;20.336;2023-05-20T07:36:01;13.30;99.90
12384;DHT22;6256;63.808;20.336;2023-05-20T07:38:27;13.30;99.90
12384;DHT22;6256;63.808;20.336;2023-05-20T07:40:52;13.40;99.90
12384;DHT22;6256;63.808;20.336;2023-05-20T07:43:19;13.50;99.90
12384;DHT22;6256;63.808;20.336;2023-05-20T07:45:45;13.50;99.90
12384;DHT22;6256;63.808;20.336;2023-05-20T07:48:10;13.50;99.90
12384;DHT22;6256;63.808;20.336;2023-05-20T07:50:37;13.70;99.90
12384;DHT22;6256;63.808;20.336;2023-05-20T07:53:04;13.80;99.90
12384;DHT22;6256;63.808;20.336;2023-05-20T07:55:32;13.90;99.90
12384;DHT22;6256;63.808;20.336;2023-05-20T07:57:58;14.00;99.90
12384;DHT22;6256;63.808;20.336;2023-05-20T08:00:24;14.00;99.90
12384;DHT22;6256;63.808;20.336;2023-05-20T08:02:49;14.10;99.90
12384;DHT22;6256;63.808;20.336;2023-05-20T08:05:15;14.10;99.90
12384;DHT22;6256;63.808;20.336;2023-05-20T08:07:41;14.20;99.90
12384;DHT22;6256;63.808;20.336;2023-05-20T08:10:07;14.30;99.90
12384;DHT22;6256;63.808;20.336;2023-05-20T08:12:33;14.40;99.90
12384;DHT22;6256;63.808;20.336;2023-05-20T08:14:59;14.40;99.90
12384;DHT22;6256;63.808;20.336;2023-05-20T08:17:25;14.50;99.90
12384;DHT22;6256;63.808;20.336;2023-05-20T08:19:50;14.70;99.90
12384;DHT22;6256;63.808;20.336;2023-05-20T08:22:16;14.90;99.90
12384;DHT22;6256;63.808;20.336;2023-05-20T08:24:42;15.00;99.90
12384;DHT22;6256;63.808;20.336;2023-05-20T08:27:07;15.20;99.90
12384;DHT22;6256;63.808;20.336;2023-05-20T08:29:33;15.20;99.90
12384;DHT22;6256;63.808;20.336;2023-05-20T08:31:59;15.30;99.90
12384;DHT22;6256;63.808;20.336;2023-05-20T08:34:24;15.40;99.90
12384;DHT22;6256;63.808;20.336;2023-05-20T08:36:50;15.50;99.90
12384;DHT22;6256;63.808;20.336;2023-05-20T08:39:16;15.70;99.90
12384;DHT22;6256;63.808;20.336;2023-05-20T08:41:42;15.80;99.90
12384;DHT22;6256;63.808;20.336;2023-05-20T08:44:08;16.00;99.90
12384;DHT22;6256;63.808;20.336;2023-05-20T08:46:36;15.90;99.90
12384;DHT22;6256;63.808;20.336;2023-05-20T08:49:02;16.00;99.90
12384;DHT22;6256;63.808;20.336;2023-05-20T08:51:28;16.10;99.90
12384;DHT22;6256;63.808;20.336;2023-05-20T08:53:58;16.30;99.90
12384;DHT22;6256;63.808;20.336;2023-05-20T08:56:24;16.40;99.90
12384;DHT22;6256;63.808;20.336;2023-05-20T08:58:51;16.50;99.90
12384;DHT22;6256;63.808;20.336;2023-05-20T09:01:18;16.50;99.90
12384;DHT22;6256;63.808;20.336;2023-05-20T09:03:44;16.50;99.90
12384;DHT22;6256;63.808;20.336;2023-05-20T09:06:15;16.60;99.90
12384;DHT22;6256;63.808;20.336;2023-05-20T09:08:41;16.50;99.90
12384;DHT22;6256;63.808;20.336;2023-05-20T09:11:09;16.60;99.90
12384;DHT22;6256;63.808;20.336;2023-05-20T09:13:34;16.60;99.90
12384;DHT22;6256;63.808;20.336;2023-05-20T09:16:00;16.80;99.90
12384;DHT22;6256;63.808;20.336;2023-05-20T09:18:26;16.80;99.90
12384;DHT22;6256;63.808;20.336;2023-05-20T09:20:55;16.80;99.90
12384;DHT22;6256;63.808;20.336;2023-05-20T09:23:21;16.80;99.90
12384;DHT22;6256;63.808;20.336;2023-05-20T09:25:49;16.90;99.90
12384;DHT22;6256;63.808;20.336;2023-05-20T09:28:23;17.10;99.90
12384;DHT22;6256;63.808;20.336;2023-05-20T09:30:49;17.00;99.90
12384;DHT22;6256;63.808;20.336;2023-05-20T09:33:16;17.00;99.90
12384;DHT22;6256;63.808;20.336;2023-05-20T09:35:42;17.20;99.90
12384;DHT22;6256;63.808;20.336;2023-05-20T09:38:08;17.10;99.90
12384;DHT22;6256;63.808;20.336;2023-05-20T09:40:36;17.20;99.90
12384;DHT22;6256;63.808;20.336;2023-05-20T09:43:07;17.20;99.90
12384;DHT22;6256;63.808;20.336;2023-05-20T09:45:36;17.40;99.90
12384;DHT22;6256;63.808;20.336;2023-05-20T09:48:03;17.30;99.90
12384;DHT22;6256;63.808;20.336;2023-05-20T09:50:30;17.60;99.90
12384;DHT22;6256;63.808;20.336;2023-05-20T09:53:01;17.80;99.90
12384;DHT22;6256;63.808;20.336;2023-05-20T09:55:27;18.00;99.90
12384;DHT22;6256;63.808;20.336;2023-05-20T09:57:54;18.20;99.90
12384;DHT22;6256;63.808;20.336;2023-05-20T10:00:20;18.30;99.90
12384;DHT22;6256;63.808;20.336;2023-05-20T10:02:50;18.40;99.90
12384;DHT22;6256;63.808;20.336;2023-05-20T10:05:42;18.50;99.90
12384;DHT22;6256;63.808;20.336;2023-05-20T10:14:05;18.00;98.90
12384;DHT22;6256;63.808;20.336;2023-05-20T10:17:02;17.90;99.50
12384;DHT22;6256;63.808;20.336;2023-05-20T10:19:33;17.90;99.40
12384;DHT22;6256;63.808;20.336;2023-05-20T10:22:00;18.10;99.90
12384;DHT22;6256;63.808;20.336;2023-05-20T10:24:34;18.20;99.00
12384;DHT22;6256;63.808;20.336;2023-05-20T10:27:02;18.40;99.60
12384;DHT22;6256;63.808;20.336;2023-05-20T10:29:28;18.60;98.40
12384;DHT22;6256;63.808;20.336;2023-05-20T10:31:54;18.40;98.00
12384;DHT22;6256;63.808;20.336;2023-05-20T10:34:21;18.50;98.10
12384;DHT22;6256;63.808;20.336;2023-05-20T10:39:28;18.40;97.70
12384;DHT22;6256;63.808;20.336;2023-05-20T10:42:07;18.40;97.50
12384;DHT22;6256;63.808;20.336;2023-05-20T10:44:46;18.50;97.50
12384;DHT22;6256;63.808;20.336;2023-05-20T10:47:13;18.50;96.50
12384;DHT22;6256;63.808;20.336;2023-05-20T10:49:43;18.70;97.20
12384;DHT22;6256;63.808;20.336;2023-05-20T10:52:09;19.00;96.50
12384;DHT22;6256;63.808;20.336;2023-05-20T10:54:41;19.30;97.00
12384;DHT22;6256;63.808;20.336;2023-05-20T10:57:08;19.40;96.70
12384;DHT22;6256;63.808;20.336;2023-05-20T10:59:35;20.00;95.50
12384;DHT22;6256;63.808;20.336;2023-05-20T11:02:02;20.30;94.40
12384;DHT22;6256;63.808;20.336;2023-05-20T11:04:29;20.20;93.90
12384;DHT22;6256;63.808;20.336;2023-05-20T11:06:55;20.80;94.10
12384;DHT22;6256;63.808;20.336;2023-05-20T11:09:21;21.40;92.40
12384;DHT22;6256;63.808;20.336;2023-05-20T11:11:48;21.30;90.90
12384;DHT22;6256;63.808;20.336;2023-05-20T11:14:14;21.50;90.60
12384;DHT22;6256;63.808;20.336;2023-05-20T11:16:42;21.00;88.10
12384;DHT22;6256;63.808;20.336;2023-05-20T11:19:16;21.10;89.20
12384;DHT22;6256;63.808;20.336;2023-05-20T11:21:44;21.10;88.10
12384;DHT22;6256;63.808;20.336;2023-05-20T11:24:10;21.40;87.90
12384;DHT22;6256;63.808;20.336;2023-05-20T11:26:36;21.60;86.20
12384;DHT22;6256;63.808;20.336;2023-05-20T11:29:02;21.90;87.90
12384;DHT22;6256;63.808;20.336;2023-05-20T11:31:28;22.20;86.20
12384;DHT22;6256;63.808;20.336;2023-05-20T11:33:54;22.70;85.90
12384;DHT22;6256;63.808;20.336;2023-05-20T11:36:19;22.80;83.50
12384;DHT22;6256;63.808;20.336;2023-05-20T11:38:46;23.00;83.90
12384;DHT22;6256;63.808;20.336;2023-05-20T11:41:12;22.80;81.20
12384;DHT22;6256;63.808;20.336;2023-05-20T11:43:38;23.20;81.70
12384;DHT22;6256;63.808;20.336;2023-05-20T11:46:06;23.40;80.10
12384;DHT22;6256;63.808;20.336;2023-05-20T11:48:31;23.00;78.70
12384;DHT22;6256;63.808;20.336;2023-05-20T11:50:57;22.60;77.90
12384;DHT22;6256;63.808;20.336;2023-05-20T11:53:23;22.70;78.40
12384;DHT22;6256;63.808;20.336;2023-05-20T11:55:54;22.90;80.20
12384;DHT22;6256;63.808;20.336;2023-05-20T11:58:25;23.20;77.30
12384;DHT22;6256;63.808;20.336;2023-05-20T12:00:51;22.90;77.10
12384;DHT22;6256;63.808;20.336;2023-05-20T12:03:17;22.90;76.00
12384;DHT22;6256;63.808;20.336;2023-05-20T12:05:43;22.70;77.00
12384;DHT22;6256;63.808;20.336;2023-05-20T12:08:09;22.90;77.50
12384;DHT22;6256;63.808;20.336;2023-05-20T12:10:35;23.60;76.70
12384;DHT22;6256;63.808;20.336;2023-05-20T12:13:04;23.30;76.70
12384;DHT22;6256;63.808;20.336;2023-05-20T12:15:36;23.10;76.20
12384;DHT22;6256;63.808;20.336;2023-05-20T12:18:02;23.10;77.10
12384;DHT22;6256;63.808;20.336;2023-05-20T12:20:29;23.50;75.70
12384;DHT22;6256;63.808;20.336;2023-05-20T12:22:56;24.00;74.80
12384;DHT22;6256;63.808;20.336;2023-05-20T12:25:25;23.80;73.20
12384;DHT22;6256;63.808;20.336;2023-05-20T12:27:51;23.50;73.40
12384;DHT22;6256;63.808;20.336;2023-05-20T12:30:18;24.10;73.10
12384;DHT22;6256;63.808;20.336;2023-05-20T12:32:45;25.00;72.70
12384;DHT22;6256;63.808;20.336;2023-05-20T12:35:11;25.10;71.30
12384;DHT22;6256;63.808;20.336;2023-05-20T12:37:38;23.80;71.00
12384;DHT22;6256;63.808;20.336;2023-05-20T12:40:06;23.50;71.00
12384;DHT22;6256;63.808;20.336;2023-05-20T12:42:39;23.40;71.70
12384;DHT22;6256;63.808;20.336;2023-05-20T12:45:06;23.30;71.50
12384;DHT22;6256;63.808;20.336;2023-05-20T12:47:32;23.60;73.70
12384;DHT22;6256;63.808;20.336;2023-05-20T12:49:58;24.30;73.60
12384;DHT22;6256;63.808;20.336;2023-05-20T12:52:25;24.40;71.70
12384;DHT22;6256;63.808;20.336;2023-05-20T12:54:53;24.50;71.80
12384;DHT22;6256;63.808;20.336;2023-05-20T12:57:18;24.60;71.70
12384;DHT22;6256;63.808;20.336;2023-05-20T12:59:44;24.00;71.20
12384;DHT22;6256;63.808;20.336;2023-05-20T13:02:10;23.50;72.40
12384;DHT22;6256;63.808;20.336;2023-05-20T13:04:36;23.70;71.60
12384;DHT22;6256;63.808;20.336;2023-05-20T13:07:02;24.00;71.50
12384;DHT22;6256;63.808;20.336;2023-05-20T13:09:28;23.30;71.90
12384;DHT22;6256;63.808;20.336;2023-05-20T13:11:54;23.70;71.10
12384;DHT22;6256;63.808;20.336;2023-05-20T13:14:20;24.40;71.90
12384;DHT22;6256;63.808;20.336;2023-05-20T13:16:46;24.40;70.90
12384;DHT22;6256;63.808;20.336;2023-05-20T13:19:12;24.80;71.00
12384;DHT22;6256;63.808;20.336;2023-05-20T13:21:38;24.50;69.50
12384;DHT22;6256;63.808;20.336;2023-05-20T13:24:04;23.90;69.70
12384;DHT22;6256;63.808;20.336;2023-05-20T13:26:30;23.90;70.00
12384;DHT22;6256;63.808;20.336;2023-05-20T13:28:56;23.70;70.20
12384;DHT22;6256;63.808;20.336;2023-05-20T13:31:21;24.00;71.00
12384;DHT22;6256;63.808;20.336;2023-05-20T13:33:47;24.60;70.60
12384;DHT22;6256;63.808;20.336;2023-05-20T13:36:13;25.00;69.20
12384;DHT22;6256;63.808;20.336;2023-05-20T13:38:38;24.40;69.40
12384;DHT22;6256;63.808;20.336;2023-05-20T13:41:04;25.00;70.00
12384;DHT22;6256;63.808;20.336;2023-05-20T13:43:30;25.60;67.80
12384;DHT22;6256;63.808;20.336;2023-05-20T13:45:57;25.40;69.00
12384;DHT22;6256;63.808;20.336;2023-05-20T13:48:23;25.70;68.40
12384;DHT22;6256;63.808;20.336;2023-05-20T13:50:48;25.60;67.00
12384;DHT22;6256;63.808;20.336;2023-05-20T13:53:14;25.70;67.50
12384;DHT22;6256;63.808;20.336;2023-05-20T13:55:40;25.20;67.20
12384;DHT22;6256;63.808;20.336;2023-05-20T13:58:06;25.60;68.00
12384;DHT22;6256;63.808;20.336;2023-05-20T14:00:35;26.10;66.00
12384;DHT22;6256;63.808;20.336;2023-05-20T14:03:01;26.70;66.70
12384;DHT22;6256;63.808;20.336;2023-05-20T14:05:30;27.30;65.30
12384;DHT22;6256;63.808;20.336;2023-05-20T14:07:55;26.20;64.60
12384;DHT22;6256;63.808;20.336;2023-05-20T14:10:21;25.80;66.10
12384;DHT22;6256;63.808;20.336;2023-05-20T14:12:47;26.00;65.30
12384;DHT22;6256;63.808;20.336;2023-05-20T14:15:13;26.00;65.20
12384;DHT22;6256;63.808;20.336;2023-05-20T14:17:39;25.80;66.80
12384;DHT22;6256;63.808;20.336;2023-05-20T14:20:05;26.00;65.20
12384;DHT22;6256;63.808;20.336;2023-05-20T14:22:31;25.60;65.60
12384;DHT22;6256;63.808;20.336;2023-05-20T14:24:57;26.50;65.60
12384;DHT22;6256;63.808;20.336;2023-05-20T14:27:23;25.80;65.10
12384;DHT22;6256;63.808;20.336;2023-05-20T14:29:48;25.90;64.80
12384;DHT22;6256;63.808;20.336;2023-05-20T14:32:14;25.20;65.80
12384;DHT22;6256;63.808;20.336;2023-05-20T14:34:40;25.40;65.70
12384;DHT22;6256;63.808;20.336;2023-05-20T14:37:05;25.70;65.60
12384;DHT22;6256;63.808;20.336;2023-05-20T14:39:35;25.40;66.30
12384;DHT22;6256;63.808;20.336;2023-05-20T14:42:01;25.70;65.90
12384;DHT22;6256;63.808;20.336;2023-05-20T14:44:28;26.10;65.30
12384;DHT22;6256;63.808;20.336;2023-05-20T14:46:53;26.60;64.20
12384;DHT22;6256;63.808;20.336;2023-05-20T14:49:19;26.40;64.30
12384;DHT22;6256;63.808;20.336;2023-05-20T14:51:45;25.60;65.10
12384;DHT22;6256;63.808;20.336;2023-05-20T14:54:11;26.00;64.50
12384;DHT22;6256;63.808;20.336;2023-05-20T14:56:40;26.10;64.00
12384;DHT22;6256;63.808;20.336;2023-05-20T14:59:06;25.60;63.80
12384;DHT22;6256;63.808;20.336;2023-05-20T15:01:32;25.30;65.30
12384;DHT22;6256;63.808;20.336;2023-05-20T15:03:58;25.60;64.90
12384;DHT22;6256;63.808;20.336;2023-05-20T15:06:24;25.50;64.90
12384;DHT22;6256;63.808;20.336;2023-05-20T15:08:50;26.10;64.40
12384;DHT22;6256;63.808;20.336;2023-05-20T15:11:16;26.10;63.90
12384;DHT22;6256;63.808;20.336;2023-05-20T15:13:41;26.10;63.90
12384;DHT22;6256;63.808;20.336;2023-05-20T15:16:10;25.70;63.50
12384;DHT22;6256;63.808;20.336;2023-05-20T15:18:36;26.10;63.40
12384;DHT22;6256;63.808;20.336;2023-05-20T15:21:02;26.10;63.60
12384;DHT22;6256;63.808;20.336;2023-05-20T15:23:28;25.50;64.50
12384;DHT22;6256;63.808;20.336;2023-05-20T15:25:54;25.60;64.10
12384;DHT22;6256;63.808;20.336;2023-05-20T15:28:20;25.70;63.70
12384;DHT22;6256;63.808;20.336;2023-05-20T15:30:50;25.90;63.30
12384;DHT22;6256;63.808;20.336;2023-05-20T15:33:16;25.90;63.50
12384;DHT22;6256;63.808;20.336;2023-05-20T15:35:42;26.20;63.20
12384;DHT22;6256;63.808;20.336;2023-05-20T15:38:07;26.40;63.20
12384;DHT22;6256;63.808;20.336;2023-05-20T15:40:33;26.40;63.70
12384;DHT22;6256;63.808;20.336;2023-05-20T15:42:59;25.80;63.00